sensor_id;sensor_type;location;lat;lon;timestamp;pressure;altitude;pressure_sealevel;temperature;humidity
60852;BME280;48553;50.766;2.900;2023-05-22T00:02:02;101028.91;;;15.34;71.28
60852;BME280;48553;50.766;2.900;2023-05-22T00:05:04;101020.53;;;15.30;71.26
60852;BME280;48553;50.766;2.900;2023-05-22T00:08:06;101025.28;;;15.30;71.29
60852;BME280;48553;50.766;2.900;2023-05-22T00:11:10;101027.16;;;15.25;71.30
60852;BME280;48553;50.766;2.900;2023-05-22T00:14:11;101015.31;;;15.25;71.39
60852;BME280;48553;50.766;2.900;2023-05-22T00:17:12;101009.69;;;15.21;71.39
60852;BME280;48553;50.766;2.900;2023-05-22T00:20:13;101008.09;;;15.20;71.59
60852;BME280;48553;50.766;2.900;2023-05-22T00:23:14;101005.00;;;15.22;71.47
60852;BME280;48553;50.766;2.900;2023-05-22T00:26:16;101004.13;;;15.18;71.69
60852;BME280;48553;50.766;2.900;2023-05-22T00:29:16;100992.63;;;15.16;71.53
60852;BME280;48553;50.766;2.900;2023-05-22T00:32:17;100990.59;;;15.13;71.75
60852;BME280;48553;50.766;2.900;2023-05-22T00:35:17;101003.16;;;15.10;71.84
60852;BME280;48553;50.766;2.900;2023-05-22T00:38:32;100996.81;;;15.10;71.78
60852;BME280;48553;50.766;2.900;2023-05-22T00:41:33;100983.41;;;15.08;71.80
60852;BME280;48553;50.766;2.900;2023-05-22T00:44:33;100999.13;;;15.08;71.88
60852;BME280;48553;50.766;2.900;2023-05-22T00:47:34;101002.63;;;15.04;72.04
60852;BME280;48553;50.766;2.900;2023-05-22T00:50:34;100993.19;;;15.06;71.82
60852;BME280;48553;50.766;2.900;2023-05-22T00:53:35;100995.53;;;15.03;72.05
60852;BME280;48553;50.766;2.900;2023-05-22T00:56:36;100987.94;;;15.00;72.26
60852;BME280;48553;50.766;2.900;2023-05-22T00:59:37;100985.56;;;14.99;72.27
60852;BME280;48553;50.766;2.900;2023-05-22T01:02:37;100987.94;;;15.00;72.15
60852;BME280;48553;50.766;2.900;2023-05-22T01:05:39;100987.88;;;14.97;72.28
60852;BME280;48553;50.766;2.900;2023-05-22T01:08:41;100987.06;;;14.96;72.27
60852;BME280;48553;50.766;2.900;2023-05-22T01:15:29;100989.03;;;14.96;72.53
60852;BME280;48553;50.766;2.900;2023-05-22T01:18:42;100991.00;;;14.95;72.48
60852;BME280;48553;50.766;2.900;2023-05-22T01:21:46;100992.56;;;14.96;72.50
60852;BME280;48553;50.766;2.900;2023-05-22T01:31:05;100991.97;;;14.87;72.78
60852;BME280;48553;50.766;2.900;2023-05-22T01:34:10;100984.88;;;14.86;72.94
60852;BME280;48553;50.766;2.900;2023-05-22T01:37:12;100986.84;;;14.86;73.00
60852;BME280;48553;50.766;2.900;2023-05-22T01:40:13;100995.47;;;14.84;72.84
60852;BME280;48553;50.766;2.900;2023-05-22T01:43:14;100995.81;;;14.82;72.76
60852;BME280;48553;50.766;2.900;2023-05-22T01:46:15;100992.59;;;14.80;73.09
60852;BME280;48553;50.766;2.900;2023-05-22T01:49:15;100991.81;;;14.80;73.03
60852;BME280;48553;50.766;2.900;2023-05-22T01:52:20;100991.38;;;14.78;73.47
60852;BME280;48553;50.766;2.900;2023-05-22T01:55:35;100983.47;;;14.76;73.37
60852;BME280;48553;50.766;2.900;2023-05-22T02:01:47;100989.00;;;14.76;73.28
60852;BME280;48553;50.766;2.900;2023-05-22T02:04:56;100983.81;;;14.75;73.27
60852;BME280;48553;50.766;2.900;2023-05-22T02:07:59;100983.81;;;14.75;73.47
60852;BME280;48553;50.766;2.900;2023-05-22T02:11:00;100983.38;;;14.73;73.55
60852;BME280;48553;50.766;2.900;2023-05-22T02:14:02;100986.84;;;14.70;73.83
60852;BME280;48553;50.766;2.900;2023-05-22T02:17:04;100986.47;;;14.71;73.75
60852;BME280;48553;50.766;2.900;2023-05-22T02:20:08;100982.13;;;14.70;73.63
60852;BME280;48553;50.766;2.900;2023-05-22T02:23:13;100988.38;;;14.67;73.70
60852;BME280;48553;50.766;2.900;2023-05-22T02:26:13;100987.56;;;14.67;73.79
60852;BME280;48553;50.766;2.900;2023-05-22T02:29:14;100980.91;;;14.68;73.68
60852;BME280;48553;50.766;2.900;2023-05-22T02:32:14;100976.44;;;14.63;74.07
60852;BME280;48553;50.766;2.900;2023-05-22T02:35:15;100982.31;;;14.61;74.18
60852;BME280;48553;50.766;2.900;2023-05-22T02:38:16;100984.63;;;14.59;74.16
60852;BME280;48553;50.766;2.900;2023-05-22T02:41:17;100975.22;;;14.60;73.96
60852;BME280;48553;50.766;2.900;2023-05-22T02:44:17;100968.47;;;14.58;74.15
60852;BME280;48553;50.766;2.900;2023-05-22T02:47:18;100967.63;;;14.57;74.40
60852;BME280;48553;50.766;2.900;2023-05-22T02:50:18;100966.03;;;14.56;74.36
60852;BME280;48553;50.766;2.900;2023-05-22T02:53:18;100962.13;;;14.57;74.28
60852;BME280;48553;50.766;2.900;2023-05-22T02:56:19;100958.44;;;14.53;74.28
60852;BME280;48553;50.766;2.900;2023-05-22T02:59:21;100965.13;;;14.52;74.46
60852;BME280;48553;50.766;2.900;2023-05-22T03:02:23;100968.22;;;14.51;74.70
60852;BME280;48553;50.766;2.900;2023-05-22T03:05:24;100962.72;;;14.51;74.56
60852;BME280;48553;50.766;2.900;2023-05-22T03:08:25;100961.13;;;14.50;74.71
60852;BME280;48553;50.766;2.900;2023-05-22T03:11:27;100965.84;;;14.49;74.82
60852;BME280;48553;50.766;2.900;2023-05-22T03:14:27;100970.13;;;14.47;74.76
60852;BME280;48553;50.766;2.900;2023-05-22T03:17:28;100961.41;;;14.45;74.93
60852;BME280;48553;50.766;2.900;2023-05-22T03:20:28;100957.81;;;14.44;75.09
60852;BME280;48553;50.766;2.900;2023-05-22T03:23:30;100962.53;;;14.44;75.11
60852;BME280;48553;50.766;2.900;2023-05-22T03:26:31;100957.75;;;14.40;75.13
60852;BME280;48553;50.766;2.900;2023-05-22T03:29:31;100953.03;;;14.41;75.31
60852;BME280;48553;50.766;2.900;2023-05-22T03:32:32;100960.41;;;14.37;75.34
60852;BME280;48553;50.766;2.900;2023-05-22T03:35:36;100962.03;;;14.38;75.33
60852;BME280;48553;50.766;2.900;2023-05-22T03:38:36;100962.81;;;14.38;75.25
60852;BME280;48553;50.766;2.900;2023-05-22T03:41:37;100958.09;;;14.39;75.31
60852;BME280;48553;50.766;2.900;2023-05-22T03:44:38;100952.53;;;14.35;75.44
60852;BME280;48553;50.766;2.900;2023-05-22T03:47:38;100948.16;;;14.34;75.63
60852;BME280;48553;50.766;2.900;2023-05-22T03:50:39;100952.88;;;14.34;75.95
60852;BME280;48553;50.766;2.900;2023-05-22T03:53:39;100959.97;;;14.35;75.83
60852;BME280;48553;50.766;2.900;2023-05-22T03:56:40;100965.03;;;14.33;75.77
60852;BME280;48553;50.766;2.900;2023-05-22T03:59:41;100957.22;;;14.35;75.63
60852;BME280;48553;50.766;2.900;2023-05-22T04:02:41;100952.41;;;14.32;75.73
60852;BME280;48553;50.766;2.900;2023-05-22T04:05:44;100956.34;;;14.31;75.91
60852;BME280;48553;50.766;2.900;2023-05-22T04:08:45;100950.44;;;14.32;75.68
60852;BME280;48553;50.766;2.900;2023-05-22T04:11:45;100953.50;;;14.27;76.05
60852;BME280;48553;50.766;2.900;2023-05-22T04:14:47;100948.41;;;14.29;75.80
60852;BME280;48553;50.766;2.900;2023-05-22T04:17:48;100941.66;;;14.27;76.02
60852;BME280;48553;50.766;2.900;2023-05-22T04:20:49;100949.94;;;14.27;76.11
60852;BME280;48553;50.766;2.900;2023-05-22T04:23:50;100960.16;;;14.26;76.24
60852;BME280;48553;50.766;2.900;2023-05-22T04:26:51;100959.34;;;14.26;76.16
60852;BME280;48553;50.766;2.900;2023-05-22T04:29:52;100970.38;;;14.26;76.25
60852;BME280;48553;50.766;2.900;2023-05-22T04:32:52;100975.88;;;14.26;76.26
60852;BME280;48553;50.766;2.900;2023-05-22T04:35:53;100964.84;;;14.26;76.31
60852;BME280;48553;50.766;2.900;2023-05-22T04:38:53;100976.59;;;14.23;76.35
60852;BME280;48553;50.766;2.900;2023-05-22T04:41:54;100975.09;;;14.25;76.46
60852;BME280;48553;50.766;2.900;2023-05-22T04:44:55;100978.66;;;14.26;76.16
60852;BME280;48553;50.766;2.900;2023-05-22T04:47:57;100979.72;;;14.21;76.66
60852;BME280;48553;50.766;2.900;2023-05-22T04:51:02;100976.94;;;14.21;76.60
60852;BME280;48553;50.766;2.900;2023-05-22T04:54:03;100978.13;;;14.20;76.69
60852;BME280;48553;50.766;2.900;2023-05-22T04:57:04;100980.16;;;14.23;76.79
60852;BME280;48553;50.766;2.900;2023-05-22T05:00:06;100981.31;;;14.22;76.86
60852;BME280;48553;50.766;2.900;2023-05-22T05:03:07;100991.97;;;14.24;76.75
60852;BME280;48553;50.766;2.900;2023-05-22T05:06:10;100994.31;;;14.22;76.77
60852;BME280;48553;50.766;2.900;2023-05-22T05:09:14;100999.44;;;14.23;76.82
60852;BME280;48553;50.766;2.900;2023-05-22T05:12:15;100989.59;;;14.22;77.00
60852;BME280;48553;50.766;2.900;2023-05-22T05:15:15;100993.16;;;14.23;76.88
60852;BME280;48553;50.766;2.900;2023-05-22T05:18:16;100995.91;;;14.23;76.91
60852;BME280;48553;50.766;2.900;2023-05-22T05:21:18;100999.44;;;14.23;76.81
60852;BME280;48553;50.766;2.900;2023-05-22T05:24:20;100990.28;;;14.19;77.31
60852;BME280;48553;50.766;2.900;2023-05-22T05:27:21;100994.66;;;14.20;77.31
60852;BME280;48553;50.766;2.900;2023-05-22T05:30:22;100994.66;;;14.20;77.24
60852;BME280;48553;50.766;2.900;2023-05-22T05:33:22;101001.75;;;14.21;77.38
60852;BME280;48553;50.766;2.900;2023-05-22T05:36:23;100990.75;;;14.21;77.19
60852;BME280;48553;50.766;2.900;2023-05-22T05:39:24;100986.84;;;14.22;76.89
60852;BME280;48553;50.766;2.900;2023-05-22T05:42:24;100999.44;;;14.23;77.03
60852;BME280;48553;50.766;2.900;2023-05-22T05:45:25;100991.56;;;14.22;77.05
60852;BME280;48553;50.766;2.900;2023-05-22T05:48:25;100992.34;;;14.22;77.44
60852;BME280;48553;50.766;2.900;2023-05-22T05:51:26;100987.63;;;14.23;77.29
60852;BME280;48553;50.766;2.900;2023-05-22T05:54:26;100999.44;;;14.23;77.21
60852;BME280;48553;50.766;2.900;2023-05-22T05:57:28;100993.94;;;14.23;77.28
60852;BME280;48553;50.766;2.900;2023-05-22T06:00:28;100995.91;;;14.23;77.40
60852;BME280;48553;50.766;2.900;2023-05-22T06:03:29;100996.34;;;14.25;77.32
60852;BME280;48553;50.766;2.900;2023-05-22T06:06:30;100991.63;;;14.25;77.62
60852;BME280;48553;50.766;2.900;2023-05-22T06:09:35;100996.34;;;14.25;77.51
60852;BME280;48553;50.766;2.900;2023-05-22T06:12:36;100995.19;;;14.26;77.60
60852;BME280;48553;50.766;2.900;2023-05-22T06:15:36;100997.16;;;14.25;77.69
60852;BME280;48553;50.766;2.900;2023-05-22T06:18:37;101000.34;;;14.27;77.74
60852;BME280;48553;50.766;2.900;2023-05-22T06:21:37;101008.97;;;14.26;77.76
60852;BME280;48553;50.766;2.900;2023-05-22T06:24:37;100998.84;;;14.30;77.71
60852;BME280;48553;50.766;2.900;2023-05-22T06:27:38;101005.97;;;14.31;77.84
60852;BME280;48553;50.766;2.900;2023-05-22T06:30:38;101010.31;;;14.32;77.90
60852;BME280;48553;50.766;2.900;2023-05-22T06:33:39;101002.84;;;14.32;77.79
60852;BME280;48553;50.766;2.900;2023-05-22T06:36:39;101011.56;;;14.34;77.74
60852;BME280;48553;50.766;2.900;2023-05-22T06:39:41;101012.34;;;14.35;77.87
60852;BME280;48553;50.766;2.900;2023-05-22T06:42:42;101015.56;;;14.37;77.92
60852;BME280;48553;50.766;2.900;2023-05-22T06:45:43;101017.19;;;14.38;77.81
60852;BME280;48553;50.766;2.900;2023-05-22T06:48:44;101012.13;;;14.40;78.02
60852;BME280;48553;50.766;2.900;2023-05-22T06:51:44;101030.25;;;14.41;78.10
60852;BME280;48553;50.766;2.900;2023-05-22T06:54:47;101026.34;;;14.42;78.14
60852;BME280;48553;50.766;2.900;2023-05-22T06:57:48;101022.06;;;14.45;78.11
60852;BME280;48553;50.766;2.900;2023-05-22T07:00:48;101026.06;;;14.47;78.16
60852;BME280;48553;50.766;2.900;2023-05-22T07:03:51;101027.66;;;14.48;78.47
60852;BME280;48553;50.766;2.900;2023-05-22T07:06:52;101032.03;;;14.49;78.22
60852;BME280;48553;50.766;2.900;2023-05-22T07:09:52;101031.66;;;14.51;78.34
60852;BME280;48553;50.766;2.900;2023-05-22T07:12:53;101036.84;;;14.52;78.45
60852;BME280;48553;50.766;2.900;2023-05-22T07:15:53;101033.38;;;14.55;78.32
60852;BME280;48553;50.766;2.900;2023-05-22T07:18:54;101035.00;;;14.56;78.38
60852;BME280;48553;50.766;2.900;2023-05-22T07:21:54;101031.91;;;14.58;78.17
60852;BME280;48553;50.766;2.900;2023-05-22T07:24:55;101035.06;;;14.60;78.32
60852;BME280;48553;50.766;2.900;2023-05-22T07:27:55;101043.44;;;14.64;78.25
60852;BME280;48553;50.766;2.900;2023-05-22T07:30:57;101035.63;;;14.66;78.19
60852;BME280;48553;50.766;2.900;2023-05-22T07:33:57;101040.78;;;14.67;78.48
60852;BME280;48553;50.766;2.900;2023-05-22T07:36:59;101048.78;;;14.72;78.00
60852;BME280;48553;50.766;2.900;2023-05-22T07:40:00;101050.03;;;14.75;77.78
60852;BME280;48553;50.766;2.900;2023-05-22T07:43:01;101050.47;;;14.77;77.64
60852;BME280;48553;50.766;2.900;2023-05-22T07:46:01;101048.63;;;14.81;77.56
60852;BME280;48553;50.766;2.900;2023-05-22T07:49:02;101050.66;;;14.84;77.41
60852;BME280;48553;50.766;2.900;2023-05-22T07:52:02;101046.38;;;14.87;77.72
60852;BME280;48553;50.766;2.900;2023-05-22T07:55:03;101049.22;;;14.90;78.45
60852;BME280;48553;50.766;2.900;2023-05-22T07:58:04;101061.16;;;14.94;78.62
60852;BME280;48553;50.766;2.900;2023-05-22T08:01:06;101056.06;;;14.96;77.69
60852;BME280;48553;50.766;2.900;2023-05-22T08:04:07;101061.69;;;15.00;78.29
60852;BME280;48553;50.766;2.900;2023-05-22T08:07:07;101061.31;;;15.01;77.86
60852;BME280;48553;50.766;2.900;2023-05-22T08:10:17;101060.59;;;15.04;78.37
60852;BME280;48553;50.766;2.900;2023-05-22T08:13:18;101064.59;;;15.07;78.33
60852;BME280;48553;50.766;2.900;2023-05-22T08:16:18;101062.28;;;15.09;78.18
60852;BME280;48553;50.766;2.900;2023-05-22T08:19:19;101062.38;;;15.13;77.13
60852;BME280;48553;50.766;2.900;2023-05-22T08:22:19;101062.00;;;15.14;77.93
60852;BME280;48553;50.766;2.900;2023-05-22T08:25:20;101059.69;;;15.16;77.80
60852;BME280;48553;50.766;2.900;2023-05-22T08:28:20;101068.06;;;15.20;77.89
60852;BME280;48553;50.766;2.900;2023-05-22T08:31:21;101061.00;;;15.22;78.13
60852;BME280;48553;50.766;2.900;2023-05-22T08:34:23;101066.63;;;15.26;77.93
60852;BME280;48553;50.766;2.900;2023-05-22T08:37:23;101068.66;;;15.29;77.79
60852;BME280;48553;50.766;2.900;2023-05-22T08:40:35;101076.22;;;15.32;77.34
60852;BME280;48553;50.766;2.900;2023-05-22T08:43:36;101077.84;;;15.33;78.30
60852;BME280;48553;50.766;2.900;2023-05-22T08:46:37;101078.28;;;15.35;77.96
60852;BME280;48553;50.766;2.900;2023-05-22T08:49:41;101078.69;;;15.37;77.63
60852;BME280;48553;50.766;2.900;2023-05-22T08:52:51;101079.56;;;15.41;77.84
60852;BME280;48553;50.766;2.900;2023-05-22T08:55:56;101083.56;;;15.44;78.08
60852;BME280;48553;50.766;2.900;2023-05-22T08:58:58;101083.66;;;15.48;78.12
60852;BME280;48553;50.766;2.900;2023-05-22T09:02:00;101079.03;;;15.52;77.67
60852;BME280;48553;50.766;2.900;2023-05-22T09:05:01;101077.50;;;15.54;78.17
60852;BME280;48553;50.766;2.900;2023-05-22T09:08:04;101082.28;;;15.57;77.95
60852;BME280;48553;50.766;2.900;2023-05-22T09:11:09;101087.09;;;15.60;77.60
60852;BME280;48553;50.766;2.900;2023-05-22T09:14:10;101089.13;;;15.63;77.68
60852;BME280;48553;50.766;2.900;2023-05-22T09:17:13;101089.31;;;15.71;78.35
60852;BME280;48553;50.766;2.900;2023-05-22T09:20:15;101075.50;;;15.71;78.28
60852;BME280;48553;50.766;2.900;2023-05-22T09:23:16;101082.66;;;15.72;78.12
60852;BME280;48553;50.766;2.900;2023-05-22T09:26:21;101102.84;;;15.76;78.02
60852;BME280;48553;50.766;2.900;2023-05-22T09:29:25;101101.69;;;15.77;78.15
60852;BME280;48553;50.766;2.900;2023-05-22T09:32:29;101094.63;;;15.79;77.76
60852;BME280;48553;50.766;2.900;2023-05-22T09:35:31;101087.59;;;15.82;78.08
60852;BME280;48553;50.766;2.900;2023-05-22T09:38:31;101094.34;;;15.84;77.98
60852;BME280;48553;50.766;2.900;2023-05-22T09:41:37;101095.22;;;15.89;78.08
60852;BME280;48553;50.766;2.900;2023-05-22T09:44:39;101094.03;;;15.90;77.99
60852;BME280;48553;50.766;2.900;2023-05-22T09:47:47;101094.47;;;15.92;77.69
60852;BME280;48553;50.766;2.900;2023-05-22T09:50:49;101090.56;;;15.93;77.67
60852;BME280;48553;50.766;2.900;2023-05-22T09:53:57;101093.03;;;15.98;77.52
60852;BME280;48553;50.766;2.900;2023-05-22T09:57:04;101089.19;;;16.02;77.52
60852;BME280;48553;50.766;2.900;2023-05-22T10:00:07;101096.31;;;16.03;77.07
60852;BME280;48553;50.766;2.900;2023-05-22T10:03:11;101085.25;;;16.03;77.31
60852;BME280;48553;50.766;2.900;2023-05-22T10:06:16;101101.47;;;16.05;77.04
60852;BME280;48553;50.766;2.900;2023-05-22T10:09:20;101109.75;;;16.05;77.15
60852;BME280;48553;50.766;2.900;2023-05-22T10:12:22;101095.50;;;16.03;76.78
60852;BME280;48553;50.766;2.900;2023-05-22T10:15:24;101101.13;;;16.06;76.75
60852;BME280;48553;50.766;2.900;2023-05-22T10:18:25;101098.34;;;16.06;76.57
60852;BME280;48553;50.766;2.900;2023-05-22T10:21:28;101095.22;;;16.08;76.46
60852;BME280;48553;50.766;2.900;2023-05-22T10:24:30;101093.69;;;16.11;76.42
60852;BME280;48553;50.766;2.900;2023-05-22T10:27:31;101103.56;;;16.12;76.16
60852;BME280;48553;50.766;2.900;2023-05-22T10:33:44;101086.69;;;16.17;76.13
60852;BME280;48553;50.766;2.900;2023-05-22T10:40:09;101094.25;;;16.20;76.01
60852;BME280;48553;50.766;2.900;2023-05-22T10:43:11;101098.63;;;16.21;75.78
60852;BME280;48553;50.766;2.900;2023-05-22T10:46:11;101103.00;;;16.22;75.61
60852;BME280;48553;50.766;2.900;2023-05-22T10:49:22;101095.94;;;16.24;75.78
60852;BME280;48553;50.766;2.900;2023-05-22T10:52:22;101099.56;;;16.28;75.78
60852;BME280;48553;50.766;2.900;2023-05-22T10:55:23;101091.72;;;16.31;75.91
60852;BME280;48553;50.766;2.900;2023-05-22T10:58:29;101097.66;;;16.33;75.79
60852;BME280;48553;50.766;2.900;2023-05-22T11:01:30;101101.25;;;16.33;75.91
60852;BME280;48553;50.766;2.900;2023-05-22T11:04:35;101103.19;;;16.33;75.99
60852;BME280;48553;50.766;2.900;2023-05-22T11:07:41;101104.81;;;16.34;75.76
60852;BME280;48553;50.766;2.900;2023-05-22T11:10:52;101109.97;;;16.35;75.55
60852;BME280;48553;50.766;2.900;2023-05-22T11:14:00;101111.91;;;16.35;75.56
60852;BME280;48553;50.766;2.900;2023-05-22T11:17:05;101105.25;;;16.36;75.52
60852;BME280;48553;50.766;2.900;2023-05-22T11:20:17;101105.59;;;16.34;75.49
60852;BME280;48553;50.766;2.900;2023-05-22T11:23:17;101096.94;;;16.36;75.18
60852;BME280;48553;50.766;2.900;2023-05-22T11:26:20;101102.47;;;16.36;75.04
60852;BME280;48553;50.766;2.900;2023-05-22T11:29:22;101112.75;;;16.35;75.33
60852;BME280;48553;50.766;2.900;2023-05-22T11:32:23;101095.31;;;16.35;75.17
60852;BME280;48553;50.766;2.900;2023-05-22T11:35:24;101116.31;;;16.36;75.08
60852;BME280;48553;50.766;2.900;2023-05-22T11:38:25;101112.78;;;16.39;74.96
60852;BME280;48553;50.766;2.900;2023-05-22T11:41:30;101106.47;;;16.38;75.01
60852;BME280;48553;50.766;2.900;2023-05-22T11:44:31;101100.94;;;16.38;74.86
60852;BME280;48553;50.766;2.900;2023-05-22T11:47:32;101102.16;;;16.41;74.75
60852;BME280;48553;50.766;2.900;2023-05-22T11:50:32;101111.66;;;16.40;74.87
60852;BME280;48553;50.766;2.900;2023-05-22T11:53:34;101110.81;;;16.39;74.44
60852;BME280;48553;50.766;2.900;2023-05-22T11:56:35;101116.78;;;16.41;74.69
60852;BME280;48553;50.766;2.900;2023-05-22T11:59:35;101118.75;;;16.41;74.73
60852;BME280;48553;50.766;2.900;2023-05-22T12:02:36;101126.28;;;16.40;74.62
60852;BME280;48553;50.766;2.900;2023-05-22T12:05:36;101114.03;;;16.41;74.35
60852;BME280;48553;50.766;2.900;2023-05-22T12:08:37;101126.31;;;16.44;74.30
60852;BME280;48553;50.766;2.900;2023-05-22T12:11:37;101110.53;;;16.44;74.25
60852;BME280;48553;50.766;2.900;2023-05-22T12:14:38;101118.88;;;16.48;74.21
60852;BME280;48553;50.766;2.900;2023-05-22T12:17:38;101119.69;;;16.48;74.08
60852;BME280;48553;50.766;2.900;2023-05-22T12:20:42;101121.75;;;16.52;74.12
60852;BME280;48553;50.766;2.900;2023-05-22T12:23:50;101125.72;;;16.54;74.09
60852;BME280;48553;50.766;2.900;2023-05-22T12:26:53;101124.94;;;16.54;73.99
60852;BME280;48553;50.766;2.900;2023-05-22T12:29:55;101114.66;;;16.54;74.03
60852;BME280;48553;50.766;2.900;2023-05-22T12:32:55;101119.44;;;16.57;73.95
60852;BME280;48553;50.766;2.900;2023-05-22T12:35:56;101119.88;;;16.59;74.08
60852;BME280;48553;50.766;2.900;2023-05-22T12:38:57;101106.50;;;16.61;74.07
60852;BME280;48553;50.766;2.900;2023-05-22T12:41:58;101124.72;;;16.62;74.29
60852;BME280;48553;50.766;2.900;2023-05-22T12:44:58;101121.94;;;16.62;74.16
60852;BME280;48553;50.766;2.900;2023-05-22T12:47:59;101125.06;;;16.61;74.30
60852;BME280;48553;50.766;2.900;2023-05-22T12:51:00;101139.69;;;16.61;74.31
60852;BME280;48553;50.766;2.900;2023-05-22T12:54:01;101140.50;;;16.62;74.02
60852;BME280;48553;50.766;2.900;2023-05-22T12:57:02;101136.94;;;16.61;73.79
60852;BME280;48553;50.766;2.900;2023-05-22T13:00:03;101143.66;;;16.60;73.78
60852;BME280;48553;50.766;2.900;2023-05-22T13:03:05;101147.88;;;16.54;73.96
60852;BME280;48553;50.766;2.900;2023-05-22T13:06:05;101138.78;;;16.54;73.73
60852;BME280;48553;50.766;2.900;2023-05-22T13:09:06;101132.41;;;16.53;73.50
60852;BME280;48553;50.766;2.900;2023-05-22T13:12:07;101139.56;;;16.54;73.43
60852;BME280;48553;50.766;2.900;2023-05-22T13:15:09;101131.69;;;16.56;73.20
60852;BME280;48553;50.766;2.900;2023-05-22T13:18:12;101136.00;;;16.54;73.25
60852;BME280;48553;50.766;2.900;2023-05-22T13:21:12;101138.38;;;16.55;73.15
60852;BME280;48553;50.766;2.900;2023-05-22T13:24:13;101132.41;;;16.53;73.13
60852;BME280;48553;50.766;2.900;2023-05-22T13:27:17;101135.63;;;16.55;73.17
60852;BME280;48553;50.766;2.900;2023-05-22T13:30:18;101131.28;;;16.54;73.08
60852;BME280;48553;50.766;2.900;2023-05-22T13:33:18;101128.53;;;16.58;73.03
60852;BME280;48553;50.766;2.900;2023-05-22T13:36:19;101133.00;;;16.62;72.79
60852;BME280;48553;50.766;2.900;2023-05-22T13:39:19;101127.88;;;16.64;72.70
60852;BME280;48553;50.766;2.900;2023-05-22T13:42:20;101139.78;;;16.65;72.97
60852;BME280;48553;50.766;2.900;2023-05-22T13:45:20;101129.50;;;16.65;72.90
60852;BME280;48553;50.766;2.900;2023-05-22T13:48:21;101134.66;;;16.67;72.95
60852;BME280;48553;50.766;2.900;2023-05-22T13:51:21;101136.25;;;16.68;72.97
60852;BME280;48553;50.766;2.900;2023-05-22T13:54:22;101140.63;;;16.69;72.93
60852;BME280;48553;50.766;2.900;2023-05-22T13:57:22;101131.50;;;16.68;73.35
60852;BME280;48553;50.766;2.900;2023-05-22T14:00:23;101133.50;;;16.68;72.97
60852;BME280;48553;50.766;2.900;2023-05-22T14:03:23;101132.63;;;16.64;73.07
60852;BME280;48553;50.766;2.900;2023-05-22T14:06:24;101136.19;;;16.64;73.00
60852;BME280;48553;50.766;2.900;2023-05-22T14:09:24;101145.31;;;16.65;72.70
60852;BME280;48553;50.766;2.900;2023-05-22T14:12:25;101143.34;;;16.65;72.84
60852;BME280;48553;50.766;2.900;2023-05-22T14:15:25;101141.34;;;16.66;72.83
60852;BME280;48553;50.766;2.900;2023-05-22T14:18:26;101140.22;;;16.67;72.91
60852;BME280;48553;50.766;2.900;2023-05-22T14:21:26;101149.31;;;16.67;73.00
60852;BME280;48553;50.766;2.900;2023-05-22T14:24:27;101141.78;;;16.68;72.97
60852;BME280;48553;50.766;2.900;2023-05-22T14:27:27;101141.78;;;16.68;73.02
60852;BME280;48553;50.766;2.900;2023-05-22T14:30:28;101140.63;;;16.69;72.75
60852;BME280;48553;50.766;2.900;2023-05-22T14:33:29;101140.63;;;16.69;72.98
60852;BME280;48553;50.766;2.900;2023-05-22T14:36:29;101137.06;;;16.68;72.96
60852;BME280;48553;50.766;2.900;2023-05-22T14:39:30;101131.91;;;16.67;73.14
60852;BME280;48553;50.766;2.900;2023-05-22T14:42:30;101147.25;;;16.64;73.22
60852;BME280;48553;50.766;2.900;2023-05-22T14:45:31;101134.22;;;16.65;73.17
60852;BME280;48553;50.766;2.900;2023-05-22T14:48:31;101134.22;;;16.65;73.12
60852;BME280;48553;50.766;2.900;2023-05-22T14:51:32;101138.53;;;16.62;73.04
60852;BME280;48553;50.766;2.900;2023-05-22T14:54:32;101142.03;;;16.59;73.15
60852;BME280;48553;50.766;2.900;2023-05-22T14:57:33;101137.28;;;16.60;73.37
60852;BME280;48553;50.766;2.900;2023-05-22T15:00:33;101134.91;;;16.58;73.30
60852;BME280;48553;50.766;2.900;2023-05-22T15:03:34;101134.09;;;16.58;73.31
60852;BME280;48553;50.766;2.900;2023-05-22T15:06:35;101132.06;;;16.55;73.22
60852;BME280;48553;50.766;2.900;2023-05-22T15:09:35;101134.03;;;16.54;73.40
60852;BME280;48553;50.766;2.900;2023-05-22T15:12:35;101139.56;;;16.54;73.63
60852;BME280;48553;50.766;2.900;2023-05-22T15:15:36;101137.16;;;16.53;73.41
60852;BME280;48553;50.766;2.900;2023-05-22T15:18:36;101136.81;;;16.54;73.42
60852;BME280;48553;50.766;2.900;2023-05-22T15:21:37;101140.31;;;16.51;73.53
60852;BME280;48553;50.766;2.900;2023-05-22T15:24:37;101136.72;;;16.50;73.54
60852;BME280;48553;50.766;2.900;2023-05-22T15:27:38;101137.09;;;16.49;73.72
60852;BME280;48553;50.766;2.900;2023-05-22T15:30:38;101138.34;;;16.52;73.71
60852;BME280;48553;50.766;2.900;2023-05-22T15:33:41;101139.13;;;16.52;73.49
60852;BME280;48553;50.766;2.900;2023-05-22T15:36:41;101141.91;;;16.52;73.67
60852;BME280;48553;50.766;2.900;2023-05-22T15:39:41;101148.22;;;16.53;73.67
60852;BME280;48553;50.766;2.900;2023-05-22T15:42:42;101143.47;;;16.53;73.67
60852;BME280;48553;50.766;2.900;2023-05-22T15:45:45;101140.31;;;16.51;73.84
60852;BME280;48553;50.766;2.900;2023-05-22T15:48:46;101139.13;;;16.52;73.75
60852;BME280;48553;50.766;2.900;2023-05-22T15:51:47;101141.09;;;16.52;73.66
60852;BME280;48553;50.766;2.900;2023-05-22T15:54:47;101149.41;;;16.52;73.75
60852;BME280;48553;50.766;2.900;2023-05-22T15:57:47;101147.34;;;16.48;73.87
60852;BME280;48553;50.766;2.900;2023-05-22T16:00:48;101154.16;;;16.51;73.74
60852;BME280;48553;50.766;2.900;2023-05-22T16:03:48;101148.19;;;16.49;73.80
60852;BME280;48553;50.766;2.900;2023-05-22T16:06:49;101152.09;;;16.48;73.96
60852;BME280;48553;50.766;2.900;2023-05-22T16:09:49;101152.47;;;16.46;73.88